sensor_id;sensor_type;location;lat;lon;timestamp;pressure;altitude;pressure_sealevel;temperature;humidity
49000;BME280;34808;48.144;17.158;2022-11-10T00:01:06;100328.47;;;10.23;100.00
49000;BME280;34808;48.144;17.158;2022-11-10T00:03:34;100363.09;;;10.45;100.00
49000;BME280;34808;48.144;17.158;2022-11-10T00:06:02;100295.94;;;10.06;100.00
49000;BME280;34808;48.144;17.158;2022-11-10T00:08:27;100329.47;;;10.22;100.00
49000;BME280;34808;48.144;17.158;2022-11-10T00:10:53;100337.72;;;10.27;100.00
49000;BME280;34808;48.144;17.158;2022-11-10T00:13:31;100343.50;;;10.31;100.00
49000;BME280;34808;48.144;17.158;2022-11-10T00:16:01;100334.50;;;10.32;100.00
49000;BME280;34808;48.144;17.158;2022-11-10T00:18:46;100367.00;;;10.49;100.00
49000;BME280;34808;48.144;17.158;2022-11-10T00:21:12;100278.53;;;10.03;100.00
49000;BME280;34808;48.144;17.158;2022-11-10T00:23:38;100332.47;;;10.34;100.00
49000;BME280;34808;48.144;17.158;2022-11-10T00:26:14;100320.88;;;10.20;100.00
49000;BME280;34808;48.144;17.158;2022-11-10T00:28:40;100278.09;;;9.99;100.00
49000;BME280;34808;48.144;17.158;2022-11-10T00:31:06;100266.13;;;9.88;100.00
49000;BME280;34808;48.144;17.158;2022-11-10T00:33:36;100356.13;;;10.44;100.00
49000;BME280;34808;48.144;17.158;2022-11-10T00:36:02;100350.94;;;10.36;100.00
49000;BME280;34808;48.144;17.158;2022-11-10T00:38:28;100254.13;;;9.77;100.00
49000;BME280;34808;48.144;17.158;2022-11-10T00:40:53;100350.72;;;10.37;100.00
49000;BME280;34808;48.144;17.158;2022-11-10T00:43:18;100262.84;;;9.86;100.00
49000;BME280;34808;48.144;17.158;2022-11-10T00:45:45;100361.22;;;10.45;100.00
49000;BME280;34808;48.144;17.158;2022-11-10T00:48:11;100345.84;;;10.41;100.00
49000;BME280;34808;48.144;17.158;2022-11-10T00:50:36;100287.91;;;9.99;100.00
49000;BME280;34808;48.144;17.158;2022-11-10T00:53:02;100359.16;;;10.41;100.00
49000;BME280;34808;48.144;17.158;2022-11-10T00:55:27;100306.59;;;10.06;100.00
49000;BME280;34808;48.144;17.158;2022-11-10T00:57:52;100309.25;;;10.06;100.00
49000;BME280;34808;48.144;17.158;2022-11-10T01:00:20;100294.03;;;9.99;100.00
49000;BME280;34808;48.144;17.158;2022-11-10T01:02:46;100351.97;;;10.19;100.00
49000;BME280;34808;48.144;17.158;2022-11-10T01:05:11;100262.69;;;9.73;100.00
49000;BME280;34808;48.144;17.158;2022-11-10T01:07:36;100362.34;;;10.29;100.00
49000;BME280;34808;48.144;17.158;2022-11-10T01:10:02;100362.06;;;10.24;100.00
49000;BME280;34808;48.144;17.158;2022-11-10T01:12:29;100282.94;;;9.74;100.00
49000;BME280;34808;48.144;17.158;2022-11-10T01:14:55;100149.09;;;8.92;100.00
49000;BME280;34808;48.144;17.158;2022-11-10T01:17:21;100365.63;;;10.31;100.00
49000;BME280;34808;48.144;17.158;2022-11-10T01:19:46;100349.13;;;10.21;100.00
49000;BME280;34808;48.144;17.158;2022-11-10T01:22:14;100301.19;;;9.77;100.00
49000;BME280;34808;48.144;17.158;2022-11-10T01:24:39;100369.88;;;10.26;100.00
49000;BME280;34808;48.144;17.158;2022-11-10T01:27:04;100386.47;;;10.28;100.00
49000;BME280;34808;48.144;17.158;2022-11-10T01:29:30;100250.72;;;9.46;100.00
49000;BME280;34808;48.144;17.158;2022-11-10T01:31:55;100290.09;;;9.73;100.00
49000;BME280;34808;48.144;17.158;2022-11-10T01:34:20;100391.84;;;10.34;100.00
49000;BME280;34808;48.144;17.158;2022-11-10T01:36:46;100380.50;;;10.26;100.00
49000;BME280;34808;48.144;17.158;2022-11-10T01:39:11;100387.88;;;10.23;100.00
49000;BME280;34808;48.144;17.158;2022-11-10T01:41:36;100380.13;;;10.29;100.00
49000;BME280;34808;48.144;17.158;2022-11-10T01:44:17;100410.28;;;10.51;100.00
49000;BME280;34808;48.144;17.158;2022-11-10T01:46:49;100255.06;;;9.32;100.00
49000;BME280;34808;48.144;17.158;2022-11-10T01:49:16;100415.78;;;10.50;100.00
49000;BME280;34808;48.144;17.158;2022-11-10T01:51:47;100420.63;;;10.46;100.00
49000;BME280;34808;48.144;17.158;2022-11-10T01:54:22;100443.59;;;10.47;100.00
49000;BME280;34808;48.144;17.158;2022-11-10T01:57:03;100237.06;;;9.34;100.00
49000;BME280;34808;48.144;17.158;2022-11-10T01:59:33;100247.91;;;9.33;100.00
49000;BME280;34808;48.144;17.158;2022-11-10T02:02:07;100340.25;;;9.76;100.00
49000;BME280;34808;48.144;17.158;2022-11-10T02:04:35;100379.56;;;9.96;100.00
49000;BME280;34808;48.144;17.158;2022-11-10T02:07:02;100323.94;;;9.79;100.00
49000;BME280;34808;48.144;17.158;2022-11-10T02:09:28;100348.88;;;9.78;100.00
49000;BME280;34808;48.144;17.158;2022-11-10T02:11:54;100403.19;;;10.21;100.00
49000;BME280;34808;48.144;17.158;2022-11-10T02:14:20;100322.00;;;9.73;100.00
49000;BME280;34808;48.144;17.158;2022-11-10T02:16:45;100365.34;;;10.04;100.00
49000;BME280;34808;48.144;17.158;2022-11-10T02:19:17;100344.47;;;9.86;100.00
49000;BME280;34808;48.144;17.158;2022-11-10T02:21:43;100375.69;;;9.99;100.00
49000;BME280;34808;48.144;17.158;2022-11-10T02:24:08;100408.88;;;10.18;100.00
49000;BME280;34808;48.144;17.158;2022-11-10T02:26:35;100416.94;;;10.25;100.00
49000;BME280;34808;48.144;17.158;2022-11-10T02:29:03;100336.06;;;9.67;100.00
49000;BME280;34808;48.144;17.158;2022-11-10T02:31:29;100242.31;;;9.12;100.00
49000;BME280;34808;48.144;17.158;2022-11-10T02:33:54;100361.69;;;9.90;100.00
49000;BME280;34808;48.144;17.158;2022-11-10T02:36:19;100363.91;;;9.86;100.00
49000;BME280;34808;48.144;17.158;2022-11-10T02:38:45;100332.94;;;9.63;100.00
49000;BME280;34808;48.144;17.158;2022-11-10T02:41:10;100388.56;;;9.95;100.00
49000;BME280;34808;48.144;17.158;2022-11-10T02:43:36;100337.16;;;9.57;100.00
49000;BME280;34808;48.144;17.158;2022-11-10T02:46:02;100396.34;;;9.97;100.00
49000;BME280;34808;48.144;17.158;2022-11-10T02:48:27;100422.66;;;10.07;100.00
49000;BME280;34808;48.144;17.158;2022-11-10T02:50:53;100398.19;;;9.81;100.00
49000;BME280;34808;48.144;17.158;2022-11-10T02:53:21;100431.03;;;10.04;100.00
49000;BME280;34808;48.144;17.158;2022-11-10T02:55:48;100432.84;;;10.03;100.00
49000;BME280;34808;48.144;17.158;2022-11-10T02:58:14;100394.06;;;9.78;100.00
49000;BME280;34808;48.144;17.158;2022-11-10T03:00:42;100434.88;;;10.01;100.00
49000;BME280;34808;48.144;17.158;2022-11-10T03:03:07;100442.66;;;10.03;100.00
49000;BME280;34808;48.144;17.158;2022-11-10T03:05:33;100259.91;;;8.83;100.00
49000;BME280;34808;48.144;17.158;2022-11-10T03:08:00;100433.06;;;9.86;100.00
49000;BME280;34808;48.144;17.158;2022-11-10T03:10:26;100463.78;;;10.04;100.00
49000;BME280;34808;48.144;17.158;2022-11-10T03:12:56;100288.50;;;8.81;100.00
49000;BME280;34808;48.144;17.158;2022-11-10T03:15:23;100396.84;;;9.55;100.00
49000;BME280;34808;48.144;17.158;2022-11-10T03:17:51;100477.25;;;10.03;100.00
49000;BME280;34808;48.144;17.158;2022-11-10T03:20:21;100432.50;;;9.76;100.00
49000;BME280;34808;48.144;17.158;2022-11-10T03:22:46;100443.97;;;9.76;100.00
49000;BME280;34808;48.144;17.158;2022-11-10T03:25:12;100411.25;;;9.45;100.00
49000;BME280;34808;48.144;17.158;2022-11-10T03:27:38;100403.16;;;9.39;100.00
49000;BME280;34808;48.144;17.158;2022-11-10T03:30:07;100416.53;;;9.30;100.00
49000;BME280;34808;48.144;17.158;2022-11-10T03:32:32;100071.84;;;7.01;100.00
49000;BME280;34808;48.144;17.158;2022-11-10T03:34:58;100490.94;;;9.84;100.00
49000;BME280;34808;48.144;17.158;2022-11-10T03:37:23;100498.28;;;9.82;100.00
49000;BME280;34808;48.144;17.158;2022-11-10T03:39:48;100497.91;;;9.70;100.00
49000;BME280;34808;48.144;17.158;2022-11-10T03:42:14;100480.13;;;9.71;100.00
49000;BME280;34808;48.144;17.158;2022-11-10T03:44:39;100497.81;;;9.78;100.00
49000;BME280;34808;48.144;17.158;2022-11-10T03:47:11;100458.16;;;9.53;100.00
49000;BME280;34808;48.144;17.158;2022-11-10T03:49:36;100491.66;;;9.78;100.00
49000;BME280;34808;48.144;17.158;2022-11-10T03:52:06;100497.34;;;9.75;100.00
49000;BME280;34808;48.144;17.158;2022-11-10T03:54:31;100463.56;;;9.45;100.00
49000;BME280;34808;48.144;17.158;2022-11-10T03:56:57;100385.72;;;9.06;100.00
49000;BME280;34808;48.144;17.158;2022-11-10T03:59:22;100492.38;;;9.72;100.00
49000;BME280;34808;48.144;17.158;2022-11-10T04:01:47;100380.78;;;8.79;100.00
49000;BME280;34808;48.144;17.158;2022-11-10T04:04:13;100449.19;;;9.39;100.00
49000;BME280;34808;48.144;17.158;2022-11-10T04:06:57;100419.19;;;9.15;100.00
49000;BME280;34808;48.144;17.158;2022-11-10T04:09:41;100367.78;;;8.84;100.00
49000;BME280;34808;48.144;17.158;2022-11-10T04:12:06;100487.66;;;9.43;100.00
49000;BME280;34808;48.144;17.158;2022-11-10T04:14:50;100454.00;;;9.20;100.00
49000;BME280;34808;48.144;17.158;2022-11-10T04:17:34;100519.50;;;9.52;100.00
49000;BME280;34808;48.144;17.158;2022-11-10T04:20:03;100476.53;;;9.24;100.00
49000;BME280;34808;48.144;17.158;2022-11-10T04:22:29;100474.91;;;9.23;100.00
49000;BME280;34808;48.144;17.158;2022-11-10T04:25:15;100478.75;;;9.21;100.00
49000;BME280;34808;48.144;17.158;2022-11-10T04:27:42;100254.53;;;7.82;100.00
49000;BME280;34808;48.144;17.158;2022-11-10T04:30:08;100485.16;;;9.27;100.00
49000;BME280;34808;48.144;17.158;2022-11-10T04:32:34;100478.44;;;9.16;100.00
49000;BME280;34808;48.144;17.158;2022-11-10T04:34:59;100484.47;;;9.09;100.00
49000;BME280;34808;48.144;17.158;2022-11-10T04:37:24;100330.25;;;8.16;100.00
49000;BME280;34808;48.144;17.158;2022-11-10T04:39:50;100525.88;;;9.27;100.00
49000;BME280;34808;48.144;17.158;2022-11-10T04:42:15;100414.75;;;8.60;100.00
49000;BME280;34808;48.144;17.158;2022-11-10T04:44:45;100527.84;;;9.25;100.00
49000;BME280;34808;48.144;17.158;2022-11-10T04:47:11;100399.50;;;8.30;100.00
49000;BME280;34808;48.144;17.158;2022-11-10T04:49:36;100475.25;;;8.73;100.00
49000;BME280;34808;48.144;17.158;2022-11-10T04:52:01;100390.41;;;8.24;100.00
49000;BME280;34808;48.144;17.158;2022-11-10T04:54:27;100486.13;;;8.87;100.00
49000;BME280;34808;48.144;17.158;2022-11-10T04:56:52;100525.84;;;9.03;100.00
49000;BME280;34808;48.144;17.158;2022-11-10T04:59:17;100493.44;;;8.85;100.00
49000;BME280;34808;48.144;17.158;2022-11-10T05:01:43;100512.28;;;8.98;100.00
49000;BME280;34808;48.144;17.158;2022-11-10T05:04:08;100561.16;;;9.12;100.00
49000;BME280;34808;48.144;17.158;2022-11-10T05:06:33;100536.88;;;8.92;100.00
49000;BME280;34808;48.144;17.158;2022-11-10T05:09:02;100569.78;;;9.14;100.00
49000;BME280;34808;48.144;17.158;2022-11-10T05:11:27;100466.06;;;8.52;100.00
49000;BME280;34808;48.144;17.158;2022-11-10T05:13:52;100581.69;;;9.27;100.00
49000;BME280;34808;48.144;17.158;2022-11-10T05:16:18;100551.91;;;9.08;100.00
49000;BME280;34808;48.144;17.158;2022-11-10T05:18:43;100480.97;;;8.62;100.00
49000;BME280;34808;48.144;17.158;2022-11-10T05:21:09;100554.00;;;8.89;100.00
49000;BME280;34808;48.144;17.158;2022-11-10T05:23:47;100450.88;;;8.37;100.00
49000;BME280;34808;48.144;17.158;2022-11-10T05:26:15;100525.97;;;8.87;100.00
49000;BME280;34808;48.144;17.158;2022-11-10T05:28:42;100579.13;;;9.10;100.00
49000;BME280;34808;48.144;17.158;2022-11-10T05:31:08;100532.28;;;8.86;100.00
49000;BME280;34808;48.144;17.158;2022-11-10T05:33:34;100509.28;;;8.69;100.00
49000;BME280;34808;48.144;17.158;2022-11-10T05:36:04;100518.78;;;8.64;100.00
49000;BME280;34808;48.144;17.158;2022-11-10T05:38:30;100572.41;;;8.91;100.00
49000;BME280;34808;48.144;17.158;2022-11-10T05:40:56;100473.16;;;8.20;100.00
49000;BME280;34808;48.144;17.158;2022-11-10T05:43:21;100597.94;;;9.00;100.00
49000;BME280;34808;48.144;17.158;2022-11-10T05:45:47;100463.72;;;8.17;100.00
49000;BME280;34808;48.144;17.158;2022-11-10T05:48:13;100581.25;;;8.83;100.00
49000;BME280;34808;48.144;17.158;2022-11-10T05:50:38;100558.09;;;8.68;100.00
49000;BME280;34808;48.144;17.158;2022-11-10T05:53:03;100548.47;;;8.67;100.00
49000;BME280;34808;48.144;17.158;2022-11-10T05:55:31;100572.16;;;8.77;100.00
49000;BME280;34808;48.144;17.158;2022-11-10T05:57:57;100597.28;;;8.98;100.00
49000;BME280;34808;48.144;17.158;2022-11-10T06:00:25;100585.06;;;8.89;100.00
49000;BME280;34808;48.144;17.158;2022-11-10T06:05:22;100594.00;;;8.88;100.00
49000;BME280;34808;48.144;17.158;2022-11-10T06:07:50;100585.66;;;8.59;100.00
49000;BME280;34808;48.144;17.158;2022-11-10T06:10:16;100425.09;;;7.74;100.00
49000;BME280;34808;48.144;17.158;2022-11-10T06:12:41;100567.75;;;8.61;100.00
49000;BME280;34808;48.144;17.158;2022-11-10T06:15:09;100539.94;;;8.32;100.00
49000;BME280;34808;48.144;17.158;2022-11-10T06:17:38;100600.09;;;8.65;100.00
49000;BME280;34808;48.144;17.158;2022-11-10T06:20:04;100578.03;;;8.64;100.00
49000;BME280;34808;48.144;17.158;2022-11-10T06:22:32;100466.59;;;8.07;100.00
49000;BME280;34808;48.144;17.158;2022-11-10T06:25:01;100594.50;;;8.91;100.00
49000;BME280;34808;48.144;17.158;2022-11-10T06:27:26;100624.13;;;9.12;100.00
49000;BME280;34808;48.144;17.158;2022-11-10T06:29:51;100480.50;;;8.18;100.00
49000;BME280;34808;48.144;17.158;2022-11-10T06:32:17;100652.53;;;9.11;100.00
49000;BME280;34808;48.144;17.158;2022-11-10T06:34:42;100420.16;;;7.71;100.00
49000;BME280;34808;48.144;17.158;2022-11-10T06:37:08;100457.03;;;7.89;100.00
49000;BME280;34808;48.144;17.158;2022-11-10T06:39:34;100651.72;;;9.02;100.00
49000;BME280;34808;48.144;17.158;2022-11-10T06:41:59;100633.16;;;8.94;100.00
49000;BME280;34808;48.144;17.158;2022-11-10T06:44:25;100648.94;;;8.87;100.00
49000;BME280;34808;48.144;17.158;2022-11-10T06:46:51;100660.69;;;9.01;100.00
49000;BME280;34808;48.144;17.158;2022-11-10T06:49:16;100679.56;;;9.15;100.00
49000;BME280;34808;48.144;17.158;2022-11-10T06:51:42;100624.59;;;8.75;100.00
49000;BME280;34808;48.144;17.158;2022-11-10T06:54:22;100670.69;;;8.99;100.00
49000;BME280;34808;48.144;17.158;2022-11-10T06:56:53;100697.19;;;9.08;100.00
49000;BME280;34808;48.144;17.158;2022-11-10T06:59:18;100666.34;;;8.98;100.00
49000;BME280;34808;48.144;17.158;2022-11-10T07:01:43;100711.56;;;9.22;100.00
49000;BME280;34808;48.144;17.158;2022-11-10T07:04:09;100657.59;;;8.89;100.00
49000;BME280;34808;48.144;17.158;2022-11-10T07:06:34;100698.00;;;9.17;100.00
49000;BME280;34808;48.144;17.158;2022-11-10T07:08:59;100688.34;;;9.16;100.00
49000;BME280;34808;48.144;17.158;2022-11-10T07:11:27;100684.34;;;9.20;100.00
49000;BME280;34808;48.144;17.158;2022-11-10T07:13:52;100721.44;;;9.45;100.00
49000;BME280;34808;48.144;17.158;2022-11-10T07:16:18;100684.88;;;9.15;100.00
49000;BME280;34808;48.144;17.158;2022-11-10T07:18:46;100732.84;;;9.54;100.00
49000;BME280;34808;48.144;17.158;2022-11-10T07:21:16;100718.59;;;9.46;100.00
49000;BME280;34808;48.144;17.158;2022-11-10T07:23:41;100703.00;;;9.43;100.00
49000;BME280;34808;48.144;17.158;2022-11-10T07:26:06;100724.53;;;9.57;100.00
49000;BME280;34808;48.144;17.158;2022-11-10T07:28:32;100670.19;;;9.28;100.00
49000;BME280;34808;48.144;17.158;2022-11-10T07:31:00;100748.66;;;9.79;100.00
49000;BME280;34808;48.144;17.158;2022-11-10T07:33:26;100700.31;;;9.52;100.00
49000;BME280;34808;48.144;17.158;2022-11-10T07:35:58;100717.50;;;9.64;100.00
49000;BME280;34808;48.144;17.158;2022-11-10T07:38:24;100734.53;;;9.78;100.00
49000;BME280;34808;48.144;17.158;2022-11-10T07:40:51;100604.59;;;8.96;100.00
49000;BME280;34808;48.144;17.158;2022-11-10T07:43:21;100753.41;;;9.92;100.00
49000;BME280;34808;48.144;17.158;2022-11-10T07:45:48;100754.59;;;9.89;100.00
49000;BME280;34808;48.144;17.158;2022-11-10T07:48:14;100750.78;;;9.84;100.00
49000;BME280;34808;48.144;17.158;2022-11-10T07:50:40;100753.94;;;9.87;100.00
49000;BME280;34808;48.144;17.158;2022-11-10T07:53:08;100689.00;;;9.50;100.00
49000;BME280;34808;48.144;17.158;2022-11-10T07:55:36;100713.00;;;9.65;100.00
49000;BME280;34808;48.144;17.158;2022-11-10T07:58:04;100786.22;;;10.08;100.00
49000;BME280;34808;48.144;17.158;2022-11-10T08:00:32;100778.66;;;10.20;100.00
49000;BME280;34808;48.144;17.158;2022-11-10T08:03:05;100758.31;;;10.04;100.00
49000;BME280;34808;48.144;17.158;2022-11-10T08:05:31;100794.75;;;10.27;100.00
49000;BME280;34808;48.144;17.158;2022-11-10T08:07:57;100763.69;;;10.19;100.00
49000;BME280;34808;48.144;17.158;2022-11-10T08:10:22;100727.38;;;10.03;100.00
49000;BME280;34808;48.144;17.158;2022-11-10T08:12:53;100785.97;;;10.41;100.00
49000;BME280;34808;48.144;17.158;2022-11-10T08:15:22;100772.00;;;10.39;100.00
49000;BME280;34808;48.144;17.158;2022-11-10T08:17:48;100755.28;;;10.30;100.00
49000;BME280;34808;48.144;17.158;2022-11-10T08:20:13;100769.44;;;10.46;100.00
49000;BME280;34808;48.144;17.158;2022-11-10T08:22:41;100720.56;;;10.23;100.00
49000;BME280;34808;48.144;17.158;2022-11-10T08:25:07;100819.34;;;10.76;100.00
49000;BME280;34808;48.144;17.158;2022-11-10T08:27:32;100661.44;;;10.13;100.00
49000;BME280;34808;48.144;17.158;2022-11-10T08:29:57;100792.63;;;10.99;100.00
49000;BME280;34808;48.144;17.158;2022-11-10T08:32:23;100606.53;;;9.97;100.00
49000;BME280;34808;48.144;17.158;2022-11-10T08:34:48;100788.28;;;11.14;100.00
49000;BME280;34808;48.144;17.158;2022-11-10T08:37:14;100789.41;;;11.19;100.00
49000;BME280;34808;48.144;17.158;2022-11-10T08:39:39;100777.09;;;11.18;100.00
49000;BME280;34808;48.144;17.158;2022-11-10T08:42:05;100763.19;;;11.08;100.00
49000;BME280;34808;48.144;17.158;2022-11-10T08:44:33;100808.56;;;11.60;100.00
49000;BME280;34808;48.144;17.158;2022-11-10T08:46:58;100788.16;;;11.52;100.00
49000;BME280;34808;48.144;17.158;2022-11-10T08:49:23;100688.81;;;10.76;100.00
49000;BME280;34808;48.144;17.158;2022-11-10T08:51:48;100789.50;;;11.63;100.00
49000;BME280;34808;48.144;17.158;2022-11-10T08:54:14;100826.63;;;11.95;100.00
49000;BME280;34808;48.144;17.158;2022-11-10T08:56:39;100822.63;;;12.06;100.00
49000;BME280;34808;48.144;17.158;2022-11-10T08:59:05;100790.72;;;11.98;100.00
49000;BME280;34808;48.144;17.158;2022-11-10T09:01:30;100793.88;;;12.24;100.00
49000;BME280;34808;48.144;17.158;2022-11-10T09:03:55;100842.47;;;12.63;100.00
49000;BME280;34808;48.144;17.158;2022-11-10T09:06:21;100801.47;;;12.49;100.00
49000;BME280;34808;48.144;17.158;2022-11-10T09:08:49;100845.06;;;12.78;100.00
49000;BME280;34808;48.144;17.158;2022-11-10T09:11:14;100831.66;;;12.71;100.00
49000;BME280;34808;48.144;17.158;2022-11-10T09:13:39;100862.53;;;13.03;100.00
49000;BME280;34808;48.144;17.158;2022-11-10T09:16:06;100846.50;;;13.03;100.00
49000;BME280;34808;48.144;17.158;2022-11-10T09:18:32;100818.81;;;12.89;100.00
49000;BME280;34808;48.144;17.158;2022-11-10T09:21:01;100817.59;;;12.91;100.00
49000;BME280;34808;48.144;17.158;2022-11-10T09:23:27;100865.91;;;13.19;100.00
49000;BME280;34808;48.144;17.158;2022-11-10T09:25:54;100892.28;;;13.29;100.00
49000;BME280;34808;48.144;17.158;2022-11-10T09:28:23;100871.97;;;13.34;100.00
49000;BME280;34808;48.144;17.158;2022-11-10T09:30:50;100886.00;;;13.43;100.00
49000;BME280;34808;48.144;17.158;2022-11-10T09:33:16;100896.13;;;13.48;100.00
49000;BME280;34808;48.144;17.158;2022-11-10T09:35:44;100873.03;;;13.40;100.00
49000;BME280;34808;48.144;17.158;2022-11-10T09:38:09;100764.69;;;12.80;100.00
49000;BME280;34808;48.144;17.158;2022-11-10T09:43:38;100678.59;;;12.20;100.00
49000;BME280;34808;48.144;17.158;2022-11-10T09:46:22;100911.69;;;13.66;100.00
49000;BME280;34808;48.144;17.158;2022-11-10T09:48:52;100899.94;;;13.61;100.00
49000;BME280;34808;48.144;17.158;2022-11-10T09:51:23;100914.97;;;13.68;100.00
49000;BME280;34808;48.144;17.158;2022-11-10T09:56:49;100908.50;;;13.56;100.00
49000;BME280;34808;48.144;17.158;2022-11-10T09:59:26;100918.88;;;13.66;100.00
49000;BME280;34808;48.144;17.158;2022-11-10T10:01:59;100795.09;;;12.79;100.00
49000;BME280;34808;48.144;17.158;2022-11-10T10:06:57;100931.78;;;13.55;100.00
49000;BME280;34808;48.144;17.158;2022-11-10T10:21:05;100939.97;;;13.18;100.00
49000;BME280;34808;48.144;17.158;2022-11-10T10:23:42;100943.59;;;13.10;100.00
49000;BME280;34808;48.144;17.158;2022-11-10T10:26:14;100956.91;;;13.03;100.00
49000;BME280;34808;48.144;17.158;2022-11-10T10:28:44;100953.44;;;13.03;100.00
49000;BME280;34808;48.144;17.158;2022-11-10T10:33:42;100787.34;;;11.89;100.00
49000;BME280;34808;48.144;17.158;2022-11-10T10:36:18;100950.44;;;12.91;100.00
49000;BME280;34808;48.144;17.158;2022-11-10T10:38:46;100817.31;;;11.91;100.00
49000;BME280;34808;48.144;17.158;2022-11-10T10:41:19;100960.81;;;12.79;100.00
49000;BME280;34808;48.144;17.158;2022-11-10T10:43:50;100942.00;;;12.65;100.00
49000;BME280;34808;48.144;17.158;2022-11-10T10:46:19;100950.19;;;12.64;100.00
49000;BME280;34808;48.144;17.158;2022-11-10T10:49:24;100957.38;;;12.63;100.00
49000;BME280;34808;48.144;17.158;2022-11-10T10:52:05;100972.00;;;12.67;100.00
49000;BME280;34808;48.144;17.158;2022-11-10T10:54:35;100974.22;;;12.64;100.00
49000;BME280;34808;48.144;17.158;2022-11-10T10:57:23;100976.44;;;12.60;100.00
49000;BME280;34808;48.144;17.158;2022-11-10T10:59:52;100894.50;;;12.08;100.00
49000;BME280;34808;48.144;17.158;2022-11-10T11:02:34;100927.97;;;12.19;100.00
49000;BME280;34808;48.144;17.158;2022-11-10T11:05:18;100960.69;;;12.43;100.00
49000;BME280;34808;48.144;17.158;2022-11-10T11:07:55;100866.56;;;11.89;100.00
49000;BME280;34808;48.144;17.158;2022-11-10T11:10:26;100982.56;;;12.54;100.00
49000;BME280;34808;48.144;17.158;2022-11-10T11:13:10;100956.97;;;12.44;100.00
49000;BME280;34808;48.144;17.158;2022-11-10T11:15:37;100960.38;;;12.38;100.00
49000;BME280;34808;48.144;17.158;2022-11-10T11:18:11;100948.06;;;12.37;100.00
49000;BME280;34808;48.144;17.158;2022-11-10T11:20:47;100985.50;;;12.59;100.00
49000;BME280;34808;48.144;17.158;2022-11-10T11:23:48;100999.69;;;12.59;100.00
49000;BME280;34808;48.144;17.158;2022-11-10T11:31:57;100987.50;;;12.57;100.00
49000;BME280;34808;48.144;17.158;2022-11-10T11:34:31;100997.03;;;12.59;100.00
49000;BME280;34808;48.144;17.158;2022-11-10T11:42:39;101004.66;;;12.47;100.00
49000;BME280;34808;48.144;17.158;2022-11-10T11:48:49;101005.03;;;12.59;100.00
49000;BME280;34808;48.144;17.158;2022-11-10T11:51:34;100857.34;;;11.69;100.00
49000;BME280;34808;48.144;17.158;2022-11-10T11:54:18;101007.72;;;12.59;100.00
49000;BME280;34808;48.144;17.158;2022-11-10T11:56:50;100928.00;;;12.11;100.00
49000;BME280;34808;48.144;17.158;2022-11-10T12:05:01;101015.53;;;12.61;100.00
49000;BME280;34808;48.144;17.158;2022-11-10T12:07:49;100991.97;;;12.49;100.00
49000;BME280;34808;48.144;17.158;2022-11-10T12:10:57;100866.13;;;11.70;100.00
49000;BME280;34808;48.144;17.158;2022-11-10T12:16:07;101020.06;;;12.45;100.00
49000;BME280;34808;48.144;17.158;2022-11-10T12:18:38;101029.25;;;12.58;100.00
49000;BME280;34808;48.144;17.158;2022-11-10T12:21:20;100975.44;;;12.24;100.00
49000;BME280;34808;48.144;17.158;2022-11-10T12:32:16;100999.69;;;12.44;100.00
49000;BME280;34808;48.144;17.158;2022-11-10T12:34:52;101022.25;;;12.57;100.00
49000;BME280;34808;48.144;17.158;2022-11-10T12:37:27;100911.13;;;11.88;100.00
49000;BME280;34808;48.144;17.158;2022-11-10T12:40:12;101030.25;;;12.57;100.00
49000;BME280;34808;48.144;17.158;2022-11-10T12:42:39;101045.50;;;12.56;100.00
49000;BME280;34808;48.144;17.158;2022-11-10T12:47:48;100990.00;;;12.21;100.00
49000;BME280;34808;48.144;17.158;2022-11-10T12:53:12;101043.06;;;12.61;100.00
49000;BME280;34808;48.144;17.158;2022-11-10T12:55:45;101035.59;;;12.57;100.00
49000;BME280;34808;48.144;17.158;2022-11-10T12:58:13;101009.66;;;12.35;100.00
49000;BME280;34808;48.144;17.158;2022-11-10T13:00:53;100972.94;;;12.07;100.00
49000;BME280;34808;48.144;17.158;2022-11-10T13:03:27;101046.94;;;12.59;100.00
49000;BME280;34808;48.144;17.158;2022-11-10T13:05:58;101018.16;;;12.39;100.00
49000;BME280;34808;48.144;17.158;2022-11-10T13:08:27;101033.16;;;12.40;100.00
49000;BME280;34808;48.144;17.158;2022-11-10T13:11:17;100971.47;;;12.04;100.00
49000;BME280;34808;48.144;17.158;2022-11-10T13:13:55;100921.16;;;11.71;100.00
49000;BME280;34808;48.144;17.158;2022-11-10T13:19:02;101045.06;;;12.37;100.00
49000;BME280;34808;48.144;17.158;2022-11-10T13:24:23;101053.22;;;12.51;100.00
49000;BME280;34808;48.144;17.158;2022-11-10T13:26:53;101069.41;;;12.65;100.00
49000;BME280;34808;48.144;17.158;2022-11-10T13:29:52;101094.31;;;12.65;100.00
49000;BME280;34808;48.144;17.158;2022-11-10T13:32:27;101080.31;;;12.48;100.00
49000;BME280;34808;48.144;17.158;2022-11-10T13:37:53;101061.81;;;12.46;100.00
49000;BME280;34808;48.144;17.158;2022-11-10T13:43:15;101109.75;;;12.70;100.00
49000;BME280;34808;48.144;17.158;2022-11-10T13:45:58;100947.09;;;11.77;100.00
49000;BME280;34808;48.144;17.158;2022-11-10T13:48:54;101093.56;;;12.71;100.00
49000;BME280;34808;48.144;17.158;2022-11-10T13:51:36;101018.78;;;12.11;100.00
49000;BME280;34808;48.144;17.158;2022-11-10T13:59:49;101102.56;;;12.70;100.00
49000;BME280;34808;48.144;17.158;2022-11-10T14:05:00;101096.31;;;12.63;100.00
49000;BME280;34808;48.144;17.158;2022-11-10T14:07:34;101111.13;;;12.66;100.00